Skjern, Denmark
Current Conditions -  °F | °C
As of 4:50 PM on Thursday 30 Oct 2014 (Local Time) from EKBI Reporting Station
Broken Clouds Broken Clouds  
Wind Chill: 46°   Ceiling: 16000
Heat Index: 48°   Visibility: 6mi
Dew Point: 41°   Wind: 5mph
Humidity: 76%   Direction: 130°SE
Pressure: 30.24"   Gusts: NA
Location:  55.95°N, 8.5°E
Report Text: EKBI 301550Z AUTO 13004KT 9999NDV BKN160/// 09/05 Q1024
Loading
Personal Weather Stations






























Interactive Weather Map
Tropical Storm Tracking
New forecast layout! Learn more

10-Day Weather Forecast

Advertisements
Track Severe Weather on mobile